Pagrindinis puslapis
METAR-TAF:

METAR-TAF

Oro uostai :

Vladivostokas, Rusija

platuma: 43-07N, ilguma: 131-56E, Aukštis: 184 m

Dabartinis oras

Ataskaita buvo paskelbta 22 minutes, ne 06:30 UTC
Vėjas 4 kt iš Šiaurės Vakarų
Temperatūra -4°C
Drėgmė 39%
Slėgis 1021 hPa
Matomumas 10 km arba daugiau

METAR: UHWW 120630Z 31002MPS 9999 NSC M04/M16 Q1021 R25L/450255 NOSIG RMK QFE765

Laikas: 16:52 (06:52 UTC)

Prognozė

Ataskaita buvo paskelbta 7 minutes, ne 06:45 UTC
Prognozė galioja nuo 12 metu 07 UTC su 13 metu 06 UTC
Vėjas 6 kt iš Šiaurės/Šiaurės Vakarų
Matomumas 10 km arba daugiau
Išsisklaidę debesys ne aukštis 3000 ft
Nuo 12 metu 1400 UTC
Vėjas 6 kt iš Vakarų/Šiaurės Vakarų
Matomumas: 5000 m
migla
Nuo 12 metu 2200 UTC
Vėjas 6 kt iš Vakarų/Pietvakarių
Matomumas 10 km arba daugiau
Išsisklaidę debesys ne aukštis 2500 ft

TAF: UHWW 120645Z 1207/1306 34003MPS 9999 SCT030 FM121400 30003MPS 5000 HZ NSC FM122200 24003MPS 9999 SCT025

Orai ataskaitas ir orų prognozės (METAR, TAF).

turimą stotys yra geltonos ir raudonos taškus žemėlapyje.

Perkelti pele per norėdami pamatyti stoties vardą.

Tada spustelėkite, norėdami matyti oro stebėjimo ir prognozės.

Norėdami pakeisti žemėlapį: spustelėkite ant žalios mygtukų su juodo kryžiaus žemyn,; žalią mygtuką su brūkšneliu, jei norite nutolinti; arba žalių rodyklių gretimoms žemėlapius.


METAR-TAF: